createdAt,value
2022-08-30T00:01:34.411Z,13.60
2022-08-30T00:04:02.938Z,13.60
2022-08-30T00:06:30.728Z,13.70
2022-08-30T00:08:59.871Z,13.70
2022-08-30T00:11:29.089Z,13.60
2022-08-30T00:13:58.236Z,13.60
2022-08-30T00:16:26.761Z,13.50
2022-08-30T00:18:54.862Z,13.50
2022-08-30T00:21:23.194Z,13.50
2022-08-30T00:23:51.078Z,13.60
2022-08-30T00:26:18.792Z,13.60
2022-08-30T00:28:46.376Z,13.60
2022-08-30T00:31:15.255Z,13.60
2022-08-30T00:33:43.224Z,13.60
2022-08-30T00:36:10.808Z,13.60
2022-08-30T00:38:38.479Z,13.60
2022-08-30T00:41:06.703Z,13.60
2022-08-30T00:43:36.640Z,13.50
2022-08-30T00:46:08.489Z,13.40
2022-08-30T00:48:44.966Z,13.40
2022-08-30T00:51:14.345Z,13.40
2022-08-30T00:53:46.784Z,13.50
2022-08-30T00:56:15.356Z,13.50
2022-08-30T00:58:46.549Z,13.40
2022-08-30T01:01:18.177Z,13.40
2022-08-30T01:03:47.028Z,13.20
2022-08-30T01:06:15.798Z,13.10
2022-08-30T01:08:47.865Z,13.20
2022-08-30T01:11:21.124Z,13.20
2022-08-30T01:13:51.477Z,13.20
2022-08-30T01:16:20.817Z,13.20
2022-08-30T01:18:52.780Z,13.20
2022-08-30T01:21:50.557Z,13.30
2022-08-30T01:24:19.540Z,13.30
2022-08-30T01:26:47.127Z,13.30
2022-08-30T01:29:19.902Z,13.20
2022-08-30T01:31:47.534Z,13.10
2022-08-30T01:34:15.112Z,13.20
2022-08-30T01:36:45.290Z,13.30
2022-08-30T01:39:17.311Z,13.20
2022-08-30T01:41:45.567Z,13.20
2022-08-30T01:44:14.185Z,13.10
2022-08-30T01:46:45.999Z,13.10
2022-08-30T01:49:16.971Z,13.20
2022-08-30T01:51:46.877Z,13.10
2022-08-30T01:54:14.861Z,13.00
2022-08-30T01:56:42.630Z,13.00
2022-08-30T01:59:10.940Z,13.00
2022-08-30T02:01:40.053Z,12.90
2022-08-30T02:04:09.823Z,12.80
2022-08-30T02:06:39.167Z,12.80
2022-08-30T02:09:06.884Z,12.90
2022-08-30T02:11:34.439Z,13.00
2022-08-30T02:14:02.067Z,13.00
2022-08-30T02:16:29.837Z,12.90
2022-08-30T02:18:57.572Z,12.90
2022-08-30T02:21:27.668Z,12.90
2022-08-30T02:23:55.569Z,13.00
2022-08-30T02:26:23.660Z,12.90
2022-08-30T02:28:52.632Z,12.90
2022-08-30T02:31:21.879Z,13.00
2022-08-30T02:33:52.029Z,12.90
2022-08-30T02:36:21.589Z,12.70
2022-08-30T02:38:50.561Z,12.70
2022-08-30T02:41:19.530Z,12.70
2022-08-30T02:43:47.418Z,12.80
2022-08-30T02:46:15.346Z,12.80
2022-08-30T02:48:43.510Z,12.80
2022-08-30T02:51:13.767Z,12.70
2022-08-30T02:53:43.871Z,12.60
2022-08-30T02:56:13.040Z,12.60
2022-08-30T02:58:42.599Z,12.60
2022-08-30T03:01:13.754Z,12.60
2022-08-30T03:03:44.642Z,12.50
2022-08-30T03:06:12.808Z,12.50
2022-08-30T03:08:41.317Z,12.50
2022-08-30T03:11:09.343Z,12.50
2022-08-30T03:13:37.152Z,12.50
2022-08-30T03:16:05.190Z,12.60
2022-08-30T03:18:33.578Z,12.60
2022-08-30T03:21:01.309Z,12.60
2022-08-30T03:23:29.154Z,12.40
2022-08-30T03:25:57.460Z,12.30
2022-08-30T03:28:25.043Z,12.20
2022-08-30T03:30:52.722Z,12.30
2022-08-30T03:33:20.470Z,12.30
2022-08-30T03:35:49.755Z,12.30
2022-08-30T03:38:17.718Z,12.30
2022-08-30T03:40:45.492Z,12.40
2022-08-30T03:43:14.578Z,12.50
2022-08-30T03:45:42.834Z,12.50
2022-08-30T03:48:10.609Z,12.50
2022-08-30T03:50:38.329Z,12.60
2022-08-30T03:53:06.574Z,12.50
2022-08-30T03:55:34.453Z,12.50
2022-08-30T03:58:02.061Z,12.60
2022-08-30T04:00:29.840Z,12.50
2022-08-30T04:02:57.514Z,12.40
2022-08-30T04:05:25.498Z,12.40
2022-08-30T04:07:53.512Z,12.30
2022-08-30T04:10:21.945Z,12.40
2022-08-30T04:12:50.249Z,12.40
2022-08-30T04:15:19.153Z,12.40
2022-08-30T04:17:47.785Z,12.40
2022-08-30T04:20:16.610Z,12.40
2022-08-30T04:22:44.235Z,12.50
2022-08-30T04:25:15.416Z,12.40
2022-08-30T04:27:45.643Z,12.30
2022-08-30T04:30:15.605Z,12.40
2022-08-30T04:32:44.538Z,12.40
2022-08-30T04:35:13.036Z,12.40
2022-08-30T04:37:41.087Z,12.30
2022-08-30T04:40:09.960Z,12.30
2022-08-30T04:42:38.297Z,12.30
2022-08-30T04:45:11.867Z,12.40
2022-08-30T04:47:39.691Z,12.40
2022-08-30T05:51:57.209Z,13.60
2022-08-30T05:54:25.305Z,13.50
2022-08-30T05:56:53.020Z,13.50
2022-08-30T05:59:21.804Z,13.50
2022-08-30T06:01:49.600Z,13.70
2022-08-30T06:04:17.423Z,13.60
2022-08-30T06:06:45.245Z,13.90
2022-08-30T06:09:14.558Z,13.80
2022-08-30T06:11:43.481Z,13.90
2022-08-30T06:14:11.604Z,14.00
2022-08-30T06:16:40.297Z,13.90
2022-08-30T06:19:09.787Z,14.00
2022-08-30T06:21:38.462Z,13.90
2022-08-30T06:24:09.064Z,14.00
2022-08-30T06:26:42.817Z,14.00
2022-08-30T06:29:12.431Z,14.20
2022-08-30T06:31:40.296Z,14.30
2022-08-30T06:34:08.607Z,14.40
2022-08-30T06:36:37.173Z,14.40
2022-08-30T06:39:05.505Z,14.40
2022-08-30T06:41:39.005Z,14.50
2022-08-30T06:44:15.573Z,14.50
2022-08-30T06:46:43.428Z,14.70
2022-08-30T06:49:12.036Z,14.60
2022-08-30T06:51:40.665Z,14.60
2022-08-30T06:54:10.885Z,14.80
2022-08-30T06:56:55.149Z,14.80
2022-08-30T06:59:26.915Z,14.90
2022-08-30T07:01:56.122Z,15.00
2022-08-30T07:04:25.572Z,15.10
2022-08-30T07:06:53.389Z,15.20
2022-08-30T07:09:23.018Z,15.30
2022-08-30T07:11:52.249Z,15.40
2022-08-30T07:14:21.408Z,15.50
2022-08-30T07:16:50.925Z,15.50
2022-08-30T07:19:21.473Z,15.50
2022-08-30T07:21:50.428Z,15.70
2022-08-30T07:24:19.238Z,15.60
2022-08-30T07:26:51.956Z,15.90
2022-08-30T07:29:21.351Z,15.90
2022-08-30T07:31:49.433Z,15.90
2022-08-30T07:34:19.780Z,16.00
2022-08-30T07:36:49.307Z,16.20
2022-08-30T07:39:17.400Z,16.10
2022-08-30T07:41:45.370Z,16.20
2022-08-30T07:44:13.667Z,16.20
2022-08-30T07:46:42.254Z,16.30
2022-08-30T07:49:11.559Z,16.30
2022-08-30T07:51:40.336Z,16.40
2022-08-30T07:54:08.717Z,16.50
2022-08-30T07:56:36.515Z,16.70
2022-08-30T07:59:05.510Z,16.80
2022-08-30T08:01:33.441Z,16.90
2022-08-30T08:04:01.225Z,16.90
2022-08-30T08:06:34.683Z,17.10
2022-08-30T08:09:03.027Z,17.20
2022-08-30T08:11:33.719Z,17.30
2022-08-30T08:14:03.601Z,17.40
2022-08-30T08:16:33.928Z,17.40
2022-08-30T08:19:01.760Z,17.60
2022-08-30T08:21:29.637Z,17.70
2022-08-30T08:23:57.389Z,17.70
2022-08-30T08:26:25.431Z,17.70
2022-08-30T08:28:53.615Z,17.90
2022-08-30T08:31:33.587Z,18.10
2022-08-30T08:34:06.089Z,18.20
2022-08-30T08:36:36.149Z,18.20
2022-08-30T08:39:05.680Z,18.20
2022-08-30T08:41:39.247Z,18.30
2022-08-30T08:44:33.793Z,18.50
2022-08-30T08:47:13.994Z,18.60
2022-08-30T08:49:46.438Z,18.80
2022-08-30T08:52:41.142Z,19.00
2022-08-30T08:55:16.182Z,19.10
2022-08-30T08:57:44.026Z,19.30
2022-08-30T09:00:13.984Z,19.50
2022-08-30T09:03:04.546Z,19.60
2022-08-30T09:05:37.957Z,19.70
2022-08-30T09:08:10.167Z,19.80
2022-08-30T09:10:50.322Z,19.90
2022-08-30T09:13:21.053Z,20.00
2022-08-30T09:15:54.719Z,20.10
2022-08-30T09:18:54.871Z,20.30
2022-08-30T09:21:27.377Z,20.50
2022-08-30T09:23:59.491Z,20.60
2022-08-30T09:26:34.037Z,20.70
2022-08-30T09:29:01.899Z,20.80
2022-08-30T09:31:32.813Z,20.90
2022-08-30T09:34:03.597Z,21.00
2022-08-30T09:36:44.143Z,21.10
2022-08-30T09:39:21.243Z,21.20
2022-08-30T09:41:53.026Z,21.30
2022-08-30T09:44:31.595Z,21.40
2022-08-30T09:47:01.362Z,21.50
2022-08-30T09:49:38.294Z,21.60
2022-08-30T09:52:27.262Z,21.70
2022-08-30T09:55:32.654Z,21.90
2022-08-30T09:58:18.828Z,22.10
2022-08-30T10:01:09.373Z,22.40
2022-08-30T10:03:41.054Z,22.50
2022-08-30T10:06:17.546Z,22.60
2022-08-30T10:08:53.547Z,22.60
2022-08-30T10:11:34.658Z,22.90
2022-08-30T10:14:34.538Z,23.10
2022-08-30T10:17:23.679Z,23.30
2022-08-30T10:20:02.460Z,23.40
2022-08-30T10:22:37.731Z,23.60
2022-08-30T10:25:32.575Z,23.80
2022-08-30T10:28:33.875Z,23.90
2022-08-30T10:31:19.774Z,24.00
2022-08-30T10:33:56.349Z,24.10
2022-08-30T10:36:33.846Z,24.20
2022-08-30T10:39:03.673Z,24.30
2022-08-30T10:41:40.811Z,24.70
2022-08-30T10:44:25.091Z,25.10
2022-08-30T10:47:23.432Z,25.30
2022-08-30T10:50:03.756Z,26.00
2022-08-30T10:53:01.326Z,26.20
2022-08-30T10:55:35.780Z,26.90
2022-08-30T10:58:05.777Z,27.70
2022-08-30T11:01:00.429Z,28.00
2022-08-30T11:03:58.995Z,28.20
2022-08-30T11:06:53.989Z,28.60
2022-08-30T11:09:47.055Z,29.40
2022-08-30T11:12:39.139Z,29.50
2022-08-30T11:15:21.557Z,30.10
2022-08-30T11:18:16.347Z,30.30
2022-08-30T11:20:50.171Z,30.30
2022-08-30T11:23:36.440Z,30.80
2022-08-30T11:26:08.375Z,31.00
2022-08-30T11:28:39.867Z,31.30
2022-08-30T11:31:22.642Z,31.30
2022-08-30T11:33:59.073Z,31.70
2022-08-30T11:36:37.582Z,31.70
2022-08-30T11:39:09.522Z,32.00
2022-08-30T11:41:47.656Z,31.40
2022-08-30T11:44:24.407Z,31.20
2022-08-30T11:46:59.351Z,31.60
2022-08-30T11:49:36.066Z,32.30
2022-08-30T11:52:59.097Z,32.00
2022-08-30T11:56:04.525Z,32.10
2022-08-30T11:58:50.922Z,32.00
2022-08-30T12:01:50.664Z,30.70
2022-08-30T12:04:27.898Z,30.60
2022-08-30T12:07:04.398Z,31.10
2022-08-30T12:09:35.221Z,30.70
2022-08-30T12:12:10.748Z,31.30
2022-08-30T12:14:48.073Z,31.40
2022-08-30T12:17:43.654Z,31.30
2022-08-30T12:20:20.247Z,31.60
2022-08-30T12:22:51.346Z,31.40
2022-08-30T12:25:40.539Z,31.10
2022-08-30T12:28:11.299Z,30.40
2022-08-30T12:30:40.280Z,30.10
2022-08-30T12:33:14.347Z,29.50
2022-08-30T12:35:44.084Z,29.30
2022-08-30T12:38:27.485Z,28.60
2022-08-30T12:41:00.475Z,28.40
2022-08-30T12:43:40.582Z,28.00
2022-08-30T12:46:15.346Z,27.90
2022-08-30T12:48:46.560Z,27.90
2022-08-30T12:51:38.365Z,27.80
2022-08-30T12:54:19.360Z,27.40
2022-08-30T12:57:19.030Z,27.40
2022-08-30T12:59:59.564Z,27.30
2022-08-30T13:02:46.308Z,27.40
2022-08-30T13:05:34.401Z,27.30
2022-08-30T13:08:44.569Z,27.50
2022-08-30T13:11:29.614Z,27.50
2022-08-30T13:14:30.036Z,27.60
2022-08-30T13:17:20.528Z,27.60
2022-08-30T13:20:22.254Z,27.60
2022-08-30T13:23:08.905Z,27.50
2022-08-30T13:25:38.373Z,27.50
2022-08-30T13:28:07.498Z,27.40
2022-08-30T13:30:35.639Z,27.50
2022-08-30T13:33:03.991Z,27.50
2022-08-30T13:35:32.490Z,27.60
2022-08-30T13:38:02.889Z,27.50
2022-08-30T13:40:30.643Z,27.50
2022-08-30T13:42:58.662Z,27.60
2022-08-30T13:45:46.281Z,27.60
2022-08-30T13:48:17.373Z,27.30
2022-08-30T13:50:52.152Z,27.00
2022-08-30T13:53:51.746Z,26.70
2022-08-30T13:56:08.580Z,26.60
2022-08-30T13:58:42.012Z,26.50
2022-08-30T14:01:10.036Z,26.30
2022-08-30T14:04:13.253Z,26.30
2022-08-30T14:06:33.577Z,26.20
2022-08-30T14:09:05.226Z,26.20
2022-08-30T14:11:34.755Z,25.90
2022-08-30T14:14:28.583Z,25.70
2022-08-30T14:16:51.239Z,25.70
2022-08-30T14:44:55.342Z,25.10
2022-08-30T14:47:28.646Z,25.10
2022-08-30T14:50:00.868Z,25.00
2022-08-30T14:52:29.603Z,25.00
2022-08-30T14:55:08.925Z,25.20
2022-08-30T14:57:38.537Z,25.10
2022-08-30T15:00:09.846Z,25.00
2022-08-30T15:02:37.559Z,24.80
2022-08-30T15:05:06.869Z,24.70
2022-08-30T15:07:36.250Z,24.60
2022-08-30T15:10:07.281Z,24.40
2022-08-30T15:12:35.081Z,24.30
2022-08-30T15:15:02.714Z,24.10
2022-08-30T15:17:31.101Z,23.90
2022-08-30T15:19:58.715Z,23.80
2022-08-30T15:22:28.448Z,23.70
2022-08-30T15:24:56.055Z,23.80
2022-08-30T15:27:24.039Z,23.90
2022-08-30T15:29:51.714Z,24.00
2022-08-30T15:32:22.311Z,24.00
2022-08-30T15:34:55.720Z,24.00
2022-08-30T15:37:23.959Z,24.00
2022-08-30T15:39:55.968Z,24.20
2022-08-30T15:42:23.930Z,24.40
2022-08-30T15:44:52.760Z,24.40
2022-08-30T15:47:22.003Z,24.40
2022-08-30T15:49:56.385Z,24.40
2022-08-30T15:52:24.919Z,24.30
2022-08-30T15:54:52.690Z,24.20
2022-08-30T15:57:23.154Z,24.30
2022-08-30T15:59:52.257Z,24.00
2022-08-30T16:02:20.674Z,23.90
2022-08-30T16:04:58.545Z,23.70
2022-08-30T16:07:26.540Z,23.60
2022-08-30T16:09:54.149Z,23.50
2022-08-30T16:12:23.840Z,23.30
2022-08-30T16:14:52.181Z,23.30
2022-08-30T16:17:20.026Z,23.10
2022-08-30T16:19:47.847Z,23.00
2022-08-30T16:22:22.378Z,22.80
2022-08-30T16:24:50.176Z,22.60
2022-08-30T16:27:18.121Z,22.50
2022-08-30T16:29:49.962Z,22.40
2022-08-30T16:32:18.379Z,22.30
2022-08-30T16:37:40.296Z,22.10
2022-08-30T16:40:09.131Z,22.00
2022-08-30T16:42:37.042Z,21.90
2022-08-30T16:45:10.383Z,21.70
2022-08-30T16:47:38.837Z,21.60
2022-08-30T16:50:07.008Z,21.60
2022-08-30T16:52:34.746Z,21.50
2022-08-30T16:55:02.553Z,21.40
2022-08-30T16:57:33.848Z,21.30
2022-08-30T17:00:01.814Z,21.20
2022-08-30T17:02:32.416Z,21.10
2022-08-30T17:05:04.576Z,21.00
2022-08-30T17:07:33.606Z,20.90
2022-08-30T17:10:03.662Z,20.80
2022-08-30T17:12:31.900Z,20.60
2022-08-30T17:15:01.712Z,20.60
2022-08-30T17:17:34.281Z,20.40
2022-08-30T17:20:03.204Z,20.40
2022-08-30T17:22:30.899Z,20.30
2022-08-30T17:24:58.661Z,20.30
2022-08-30T17:27:27.054Z,20.20
2022-08-30T17:29:55.249Z,20.20
2022-08-30T17:32:23.031Z,20.10
2022-08-30T17:34:52.837Z,20.00
2022-08-30T17:37:21.028Z,20.00
2022-08-30T17:39:49.018Z,19.90
2022-08-30T17:42:17.142Z,19.80
2022-08-30T17:44:45.137Z,19.80
2022-08-30T17:47:13.021Z,19.80
2022-08-30T17:49:40.806Z,19.70
2022-08-30T17:52:08.665Z,19.60
2022-08-30T17:54:40.034Z,19.50
2022-08-30T17:57:10.899Z,19.40
2022-08-30T17:59:40.104Z,19.40
2022-08-30T18:02:10.976Z,19.40
2022-08-30T18:04:41.822Z,19.30
2022-08-30T18:07:12.917Z,19.20
2022-08-30T18:09:40.942Z,19.10
2022-08-30T18:12:10.046Z,19.10
2022-08-30T18:17:26.122Z,19.20
2022-08-30T18:19:54.167Z,19.20
2022-08-30T18:22:22.820Z,19.20
2022-08-30T18:24:52.420Z,19.20
2022-08-30T18:27:20.095Z,19.20
2022-08-30T18:29:47.959Z,19.20
2022-08-30T18:32:15.723Z,19.20
2022-08-30T18:34:43.611Z,19.10
2022-08-30T18:37:12.769Z,19.10
2022-08-30T18:39:41.908Z,18.90
2022-08-30T18:42:10.161Z,18.90
2022-08-30T18:44:37.913Z,19.00
2022-08-30T18:47:06.361Z,18.90
2022-08-30T18:49:35.837Z,19.00
2022-08-30T18:52:06.764Z,19.00
2022-08-30T18:54:39.064Z,19.00
2022-08-30T18:57:08.356Z,18.80
2022-08-30T18:59:39.109Z,18.70
2022-08-30T19:02:13.184Z,18.70
2022-08-30T19:04:42.741Z,18.40
2022-08-30T19:07:14.336Z,18.30
2022-08-30T19:09:43.516Z,18.20
2022-08-30T19:12:13.891Z,18.10
2022-08-30T19:14:41.751Z,18.00
2022-08-30T19:17:09.548Z,18.10
2022-08-30T19:19:47.944Z,18.00
2022-08-30T19:22:21.942Z,18.10
2022-08-30T19:24:51.014Z,18.10
2022-08-30T19:27:21.662Z,18.10
2022-08-30T19:30:21.635Z,18.10
2022-08-30T19:32:53.096Z,18.00
2022-08-30T19:35:22.163Z,18.00
2022-08-30T19:37:49.927Z,18.10
2022-08-30T19:40:19.069Z,18.10
2022-08-30T19:42:47.365Z,18.10
2022-08-30T19:45:21.799Z,18.10
2022-08-30T19:47:50.553Z,18.30
2022-08-30T19:50:19.586Z,18.30
2022-08-30T19:52:53.765Z,18.30
2022-08-30T19:55:29.878Z,18.20
2022-08-30T19:57:59.330Z,18.00
2022-08-30T20:00:27.383Z,17.80
2022-08-30T20:03:01.802Z,17.50
2022-08-30T20:05:30.781Z,17.50
2022-08-30T20:07:59.424Z,17.60
2022-08-30T20:10:27.195Z,17.40
2022-08-30T20:12:54.925Z,17.20
2022-08-30T20:15:23.172Z,17.30
2022-08-30T20:20:38.947Z,17.10
2022-08-30T20:23:06.615Z,17.00
2022-08-30T20:24:27.258Z,19.20
2022-08-30T20:25:35.359Z,17.00
2022-08-30T20:28:03.424Z,17.10
2022-08-30T20:30:31.321Z,17.10
2022-08-30T20:33:01.611Z,17.00
2022-08-30T20:35:32.085Z,17.00
2022-08-30T20:38:06.361Z,17.00
2022-08-30T20:40:38.226Z,17.10
2022-08-30T20:43:06.981Z,17.20
2022-08-30T20:45:34.751Z,17.30
2022-08-30T20:48:03.332Z,17.30
2022-08-30T20:50:31.367Z,17.30
2022-08-30T20:52:59.048Z,17.30
2022-08-30T20:55:26.872Z,17.40
2022-08-30T20:57:54.637Z,17.40
2022-08-30T21:00:23.057Z,17.50
2022-08-30T21:02:51.530Z,17.50
2022-08-30T21:05:19.388Z,17.40
2022-08-30T21:07:47.255Z,17.50
2022-08-30T21:10:21.192Z,17.60
2022-08-30T21:12:51.387Z,17.70
2022-08-30T21:15:37.704Z,17.70
2022-08-30T21:18:06.083Z,17.70
2022-08-30T21:20:33.944Z,17.80
2022-08-30T21:23:01.690Z,17.90
2022-08-30T21:25:31.088Z,18.00
2022-08-30T21:27:58.962Z,18.10
2022-08-30T21:30:26.848Z,18.10
2022-08-30T21:32:55.212Z,18.00
2022-08-30T21:35:47.842Z,18.10
2022-08-30T21:38:16.149Z,18.10
2022-08-30T21:40:44.086Z,18.00
2022-08-30T21:43:12.673Z,18.10
2022-08-30T21:45:41.914Z,18.00
2022-08-30T21:48:10.827Z,18.00
2022-08-30T21:50:40.685Z,18.00
2022-08-30T21:53:08.567Z,18.00
2022-08-30T21:55:36.857Z,18.00
2022-08-30T21:58:04.772Z,18.10
2022-08-30T22:00:33.744Z,18.10
2022-08-30T22:03:01.525Z,18.10
2022-08-30T22:05:29.501Z,18.00
2022-08-30T22:07:57.256Z,18.10
2022-08-30T22:10:25.333Z,18.10
2022-08-30T22:12:53.051Z,18.00
2022-08-30T22:15:22.467Z,17.90
2022-08-30T22:17:56.974Z,17.90
2022-08-30T22:20:24.712Z,17.90
2022-08-30T22:22:55.346Z,17.90
2022-08-30T22:25:23.090Z,18.00
2022-08-30T22:27:50.827Z,18.10
2022-08-30T22:30:18.662Z,18.10
2022-08-30T22:32:47.749Z,18.10
2022-08-30T22:35:16.240Z,18.20
2022-08-30T22:37:47.725Z,18.20
2022-08-30T22:40:20.975Z,18.20
2022-08-30T22:42:48.865Z,18.20
2022-08-30T22:45:16.852Z,18.20
2022-08-30T22:47:44.694Z,18.10
2022-08-30T22:50:13.399Z,18.10
2022-08-30T22:52:41.293Z,18.10
2022-08-30T22:55:09.214Z,18.20
2022-08-30T22:57:38.539Z,18.20
2022-08-30T23:00:17.454Z,18.10
2022-08-30T23:02:50.811Z,18.00
2022-08-30T23:05:21.620Z,18.00
2022-08-30T23:07:50.853Z,18.00
2022-08-30T23:10:19.030Z,18.00
2022-08-30T23:12:46.764Z,17.90
2022-08-30T23:15:16.146Z,17.90
2022-08-30T23:17:43.943Z,18.00
2022-08-30T23:20:12.266Z,18.10
2022-08-30T23:22:39.935Z,18.20
2022-08-30T23:25:26.761Z,18.20
2022-08-30T23:28:15.046Z,18.10
2022-08-30T23:31:07.329Z,18.00
2022-08-30T23:33:53.708Z,18.00
2022-08-30T23:36:39.845Z,18.10
2022-08-30T23:39:26.219Z,18.00
2022-08-30T23:42:12.311Z,18.20
2022-08-30T23:44:58.922Z,18.20
2022-08-30T23:47:45.006Z,18.10
2022-08-30T23:50:30.937Z,18.00
2022-08-30T23:53:17.254Z,17.90
2022-08-30T23:56:03.558Z,17.90
2022-08-30T23:58:49.964Z,17.90
